Linda — OJML — position and weather

sailwx.info

Track history (hours):
 
Tides and Currents Weather Stations Pressure Air Temp Water Temp Dewpoint Dewpoint Depression Visibility Wind Speed Wind Dir Waves Ship Positions

Linda

Last reported at 2014-Dec-20 07:27 UTC. Time now 2014-Dec-20 13:40 UTC.
Position N 59°59' E 026°40'.

Length 141 m; draft 7.2 m.

Type: Ship (hazmat cat A). MMSI: 230984000.

Date/timePositionNaut miles runAvg speedWind from/ knotsBaromVisibWave heightAir tempDewpointWater temp
2014-Dec-20 07:27N 59°59' E 026°40'62 1.5
2014-Dec-18 14:32N 59°47' E 024°39'1111.0
2014-Dec-18 13:33N 59°42' E 024°20'2711.0
2014-Dec-18 11:08N 59°33' E 023°30'344 7.1
2014-Dec-16 10:29N 55°41' E 015°38'1616.8
2014-Dec-16 09:34N 55°34' E 015°13'1717.1
2014-Dec-16 08:33N 55°25' E 014°47'1717.2
2014-Dec-16 07:33N 55°13' E 014°26'1716.5
2014-Dec-16 06:33N 55°00' E 014°07'1716.6
2014-Dec-16 05:33N 54°55' E 013°39'5016.6
2014-Dec-16 02:33N 54°33' E 012°22'2116.0
2014-Dec-16 01:15N 54°24' E 011°49'3316.4
2014-Dec-15 23:14N 54°35' E 010°56'1116.8
2014-Dec-15 22:34N 54°33' E 010°36'1414.3
2014-Dec-15 21:33N 54°27' E 010°15'6 5.7
2014-Dec-15 20:33N 54°22' E 010°08'5 5.3
2014-Dec-15 19:33N 54°21' E 009°59'8 7.8
2014-Dec-15 18:33N 54°21' E 009°46'6 5.0
2014-Dec-15 17:16N 54°17' E 009°38'3 4.2
2014-Dec-15 16:33N 54°14' E 009°36'8 8.4
2014-Dec-15 15:33N 54°10' E 009°24'8 7.7
2014-Dec-15 14:33N 54°03' E 009°18'2 2.5
2014-Dec-15 13:33N 54°00' E 009°18'8 8.3
2014-Dec-15 12:33N 53°54' E 009°09'2 1.6
2014-Dec-15 11:33N 53°53' E 009°06'3 2.7
2014-Dec-15 10:33N 53°52' E 009°02'1212.0
2014-Dec-15 09:34N 53°53' E 008°42'1313.1
2014-Dec-15 08:33N 53°59' E 008°23'1515.2
2014-Dec-15 07:33N 53°59' E 007°57'1616.0
2014-Dec-15 06:32N 53°55' E 007°30'4016.4
2014-Dec-15 04:05N 53°44' E 006°24'916.6
2014-Dec-15 03:34N 53°43' E 006°10'1717.0
2014-Dec-15 02:33N 53°37' E 005°42'1717.2
2014-Dec-15 01:33N 53°32' E 005°15'1717.1
2014-Dec-15 00:34N 53°25' E 004°48'1616.4
2014-Dec-14 23:33N 53°12' E 004°32'1716.7
2014-Dec-14 22:33N 52°57' E 004°19'1716.8
2014-Dec-14 21:33N 52°43' E 004°03'1717.2
2014-Dec-14 20:33N 52°30' E 003°45'2317.2
2014-Dec-14 19:13N 52°10' E 003°28'1217.2
2014-Dec-14 18:32N 51°58' E 003°23'1714.7
2014-Dec-14 17:21N 51°41' E 003°19'1215.2
2014-Dec-14 16:34N 51°30' E 003°27'9 8.8
2014-Dec-14 15:34N 51°27' E 003°40'9 8.9
2014-Dec-14 14:34N 51°20' E 003°49'6 6.1
2014-Dec-14 13:34N 51°14' E 003°48'7 7.0
2014-Dec-14 12:33N 51°07' E 003°45'0 0.0
2014-Dec-14 11:30N 51°07' E 003°45'0 0.0
2014-Dec-14 10:34N 51°07' E 003°45'0 0.0
2014-Dec-14 09:30N 51°07' E 003°45'0 0.0
2014-Dec-14 08:33N 51°07' E 003°45'0 0.0
2014-Dec-14 07:31N 51°07' E 003°45'0 0.0
2014-Dec-14 06:33N 51°07' E 003°45'0 0.0
2014-Dec-14 05:33N 51°07' E 003°45'0 0.0
2014-Dec-14 04:33N 51°07' E 003°45'0 0.0
2014-Dec-14 03:33N 51°07' E 003°45'0 0.0
2014-Dec-14 02:33N 51°07' E 003°45'0 0.0
2014-Dec-14 01:33N 51°07' E 003°45'0 0.0
2014-Dec-14 00:33N 51°07' E 003°45'0 0.0
2014-Dec-13 23:33N 51°07' E 003°45'0 0.0
2014-Dec-13 22:30N 51°07' E 003°45'0 0.0
2014-Dec-13 21:30N 51°07' E 003°45'0 0.0
2014-Dec-13 20:30N 51°07' E 003°45'0 0.0
2014-Dec-13 19:34N 51°07' E 003°45'6 5.8
2014-Dec-13 18:34N 51°12' E 003°48'6 6.5
2014-Dec-13 17:33N 51°19' E 003°50'2 1.6
2014-Dec-13 16:34N 51°20' E 003°49'8 8.2
2014-Dec-13 15:34N 51°26' E 003°40'1313.2
2014-Dec-13 14:33N 51°24' E 003°19'1615.8
2014-Dec-13 13:33N 51°22' E 002°54'1310.7
2014-Dec-13 12:23N 51°21' E 002°34'1 1.1
2014-Dec-13 11:31N 51°20' E 002°33'7 6.8
2014-Dec-13 10:33N 51°20' E 002°22'1615.7
2014-Dec-13 09:34N 51°24' E 001°58'1616.2
2014-Dec-13 08:34N 51°28' E 001°33'1716.6
2014-Dec-13 07:33N 51°30' E 001°06'1414.0
2014-Dec-13 06:33N 51°26' E 000°44'0 0.0
2014-Dec-13 05:33N 51°26' E 000°44'0 0.0
2014-Dec-13 04:33N 51°26' E 000°44'0 0.0
2014-Dec-13 03:33N 51°26' E 000°44'0 0.0
2014-Dec-13 02:33N 51°26' E 000°44'0 0.0
2014-Dec-13 01:33N 51°26' E 000°44'0 0.0
2014-Dec-13 00:33N 51°26' E 000°44'0 0.0
2014-Dec-12 23:33N 51°26' E 000°44'0 0.0
2014-Dec-12 22:33N 51°26' E 000°44'9 8.9
2014-Dec-12 21:33N 51°29' E 000°58'1514.6
2014-Dec-12 20:33N 51°28' E 001°22'1010.3
2014-Dec-12 19:34N 51°31' E 001°37'1211.7
2014-Dec-12 18:33N 51°42' E 001°45'1313.2
2014-Dec-12 17:33N 51°55' E 001°45'1615.5
2014-Dec-12 16:33N 52°11' E 001°49'1616.3
2014-Dec-12 15:33N 52°27' E 001°53'1716.8
2014-Dec-12 14:34N 52°44' E 001°55'1818.1
2014-Dec-12 13:33N 52°57' E 001°36'1918.5
2014-Dec-12 12:33N 53°13' E 001°19'3718.2
2014-Dec-12 10:32N 53°44' E 000°46'1818.5
2014-Dec-12 09:33N 53°57' E 000°24'1918.6
2014-Dec-12 08:33N 54°10' E 000°03'1918.9
2014-Dec-12 07:33N 54°24' W 000°20'2518.3
2014-Dec-12 06:10N 54°38' W 000°56'8 0.4
2014-Dec-11 10:16N 54°36' W 001°09'0 0.0
2014-Dec-11 09:31N 54°36' W 001°09'2 2.0
2014-Dec-11 08:32N 54°38' W 001°09'5 4.5
2014-Dec-11 07:26N 54°40' W 001°02'0 0.0
2014-Dec-11 06:26N 54°40' W 001°02'0 0.0
2014-Dec-11 00:32N 54°40' W 001°02'0 0.0
2014-Dec-10 23:29N 54°40' W 001°02'5 5.1
2014-Dec-10 22:33N 54°39' W 000°54'1613.1
2014-Dec-10 21:21N 54°31' W 000°30'810.2
2014-Dec-10 20:33N 54°27' W 000°19'9 9.2
2014-Dec-10 19:33N 54°21' W 000°07'9 8.6
2014-Dec-10 18:33N 54°15' E 000°04'9 8.8
2014-Dec-10 17:33N 54°09' E 000°16'9 8.6
2014-Dec-10 16:33N 54°04' E 000°27'8 8.3
2014-Dec-10 15:34N 53°59' E 000°38'8 8.3
2014-Dec-10 14:33N 53°53' E 000°49'  
Track history (hours):
 
Tides and Currents Weather Stations Pressure Air Temp Water Temp Dewpoint Dewpoint Depression Visibility Wind Speed Wind Dir Waves Ship Positions

Linda

Last reported at 2014-Dec-20 07:27 UTC. Time now 2014-Dec-20 13:40 UTC.
Position N 59°59' E 026°40'.

Length 141 m; draft 7.2 m.

Type: Ship (hazmat cat A). MMSI: 230984000.

Date/timePositionNaut miles runAvg speedWind from/ knotsBaromVisibWave heightAir tempDewpointWater temp
2014-Dec-20 07:27N 59°59' E 026°40'62 1.5
2014-Dec-18 14:32N 59°47' E 024°39'1111.0
2014-Dec-18 13:33N 59°42' E 024°20'2711.0
2014-Dec-18 11:08N 59°33' E 023°30'344 7.1
2014-Dec-16 10:29N 55°41' E 015°38'1616.8
2014-Dec-16 09:34N 55°34' E 015°13'1717.1
2014-Dec-16 08:33N 55°25' E 014°47'1717.2
2014-Dec-16 07:33N 55°13' E 014°26'1716.5
2014-Dec-16 06:33N 55°00' E 014°07'1716.6
2014-Dec-16 05:33N 54°55' E 013°39'5016.6
2014-Dec-16 02:33N 54°33' E 012°22'2116.0
2014-Dec-16 01:15N 54°24' E 011°49'3316.4
2014-Dec-15 23:14N 54°35' E 010°56'1116.8
2014-Dec-15 22:34N 54°33' E 010°36'1414.3
2014-Dec-15 21:33N 54°27' E 010°15'6 5.7
2014-Dec-15 20:33N 54°22' E 010°08'5 5.3
2014-Dec-15 19:33N 54°21' E 009°59'8 7.8
2014-Dec-15 18:33N 54°21' E 009°46'6 5.0
2014-Dec-15 17:16N 54°17' E 009°38'3 4.2
2014-Dec-15 16:33N 54°14' E 009°36'8 8.4
2014-Dec-15 15:33N 54°10' E 009°24'8 7.7
2014-Dec-15 14:33N 54°03' E 009°18'2 2.5
2014-Dec-15 13:33N 54°00' E 009°18'8 8.3
2014-Dec-15 12:33N 53°54' E 009°09'2 1.6
2014-Dec-15 11:33N 53°53' E 009°06'3 2.7
2014-Dec-15 10:33N 53°52' E 009°02'1212.0
2014-Dec-15 09:34N 53°53' E 008°42'1313.1
2014-Dec-15 08:33N 53°59' E 008°23'1515.2
2014-Dec-15 07:33N 53°59' E 007°57'1616.0
2014-Dec-15 06:32N 53°55' E 007°30'4016.4
2014-Dec-15 04:05N 53°44' E 006°24'916.6
2014-Dec-15 03:34N 53°43' E 006°10'1717.0
2014-Dec-15 02:33N 53°37' E 005°42'1717.2
2014-Dec-15 01:33N 53°32' E 005°15'1717.1
2014-Dec-15 00:34N 53°25' E 004°48'1616.4
2014-Dec-14 23:33N 53°12' E 004°32'1716.7
2014-Dec-14 22:33N 52°57' E 004°19'1716.8
2014-Dec-14 21:33N 52°43' E 004°03'1717.2
2014-Dec-14 20:33N 52°30' E 003°45'2317.2
2014-Dec-14 19:13N 52°10' E 003°28'1217.2
2014-Dec-14 18:32N 51°58' E 003°23'1714.7
2014-Dec-14 17:21N 51°41' E 003°19'1215.2
2014-Dec-14 16:34N 51°30' E 003°27'9 8.8
2014-Dec-14 15:34N 51°27' E 003°40'9 8.9
2014-Dec-14 14:34N 51°20' E 003°49'6 6.1
2014-Dec-14 13:34N 51°14' E 003°48'7 7.0
2014-Dec-14 12:33N 51°07' E 003°45'0 0.0
2014-Dec-14 11:30N 51°07' E 003°45'0 0.0
2014-Dec-14 10:34N 51°07' E 003°45'0 0.0
2014-Dec-14 09:30N 51°07' E 003°45'0 0.0
2014-Dec-14 08:33N 51°07' E 003°45'0 0.0
2014-Dec-14 07:31N 51°07' E 003°45'0 0.0
2014-Dec-14 06:33N 51°07' E 003°45'0 0.0
2014-Dec-14 05:33N 51°07' E 003°45'0 0.0
2014-Dec-14 04:33N 51°07' E 003°45'0 0.0
2014-Dec-14 03:33N 51°07' E 003°45'0 0.0
2014-Dec-14 02:33N 51°07' E 003°45'0 0.0
2014-Dec-14 01:33N 51°07' E 003°45'0 0.0
2014-Dec-14 00:33N 51°07' E 003°45'0 0.0
2014-Dec-13 23:33N 51°07' E 003°45'0 0.0
2014-Dec-13 22:30N 51°07' E 003°45'0 0.0
2014-Dec-13 21:30N 51°07' E 003°45'0 0.0
2014-Dec-13 20:30N 51°07' E 003°45'0 0.0
2014-Dec-13 19:34N 51°07' E 003°45'6 5.8
2014-Dec-13 18:34N 51°12' E 003°48'6 6.5
2014-Dec-13 17:33N 51°19' E 003°50'2 1.6
2014-Dec-13 16:34N 51°20' E 003°49'8 8.2
2014-Dec-13 15:34N 51°26' E 003°40'1313.2
2014-Dec-13 14:33N 51°24' E 003°19'1615.8
2014-Dec-13 13:33N 51°22' E 002°54'1310.7
2014-Dec-13 12:23N 51°21' E 002°34'1 1.1
2014-Dec-13 11:31N 51°20' E 002°33'7 6.8
2014-Dec-13 10:33N 51°20' E 002°22'1615.7
2014-Dec-13 09:34N 51°24' E 001°58'1616.2
2014-Dec-13 08:34N 51°28' E 001°33'1716.6
2014-Dec-13 07:33N 51°30' E 001°06'1414.0
2014-Dec-13 06:33N 51°26' E 000°44'0 0.0
2014-Dec-13 05:33N 51°26' E 000°44'0 0.0
2014-Dec-13 04:33N 51°26' E 000°44'0 0.0
2014-Dec-13 03:33N 51°26' E 000°44'0 0.0
2014-Dec-13 02:33N 51°26' E 000°44'0 0.0
2014-Dec-13 01:33N 51°26' E 000°44'0 0.0
2014-Dec-13 00:33N 51°26' E 000°44'0 0.0
2014-Dec-12 23:33N 51°26' E 000°44'0 0.0
2014-Dec-12 22:33N 51°26' E 000°44'9 8.9
2014-Dec-12 21:33N 51°29' E 000°58'1514.6
2014-Dec-12 20:33N 51°28' E 001°22'1010.3
2014-Dec-12 19:34N 51°31' E 001°37'1211.7
2014-Dec-12 18:33N 51°42' E 001°45'1313.2
2014-Dec-12 17:33N 51°55' E 001°45'1615.5
2014-Dec-12 16:33N 52°11' E 001°49'1616.3
2014-Dec-12 15:33N 52°27' E 001°53'1716.8
2014-Dec-12 14:34N 52°44' E 001°55'1818.1
2014-Dec-12 13:33N 52°57' E 001°36'1918.5
2014-Dec-12 12:33N 53°13' E 001°19'3718.2
2014-Dec-12 10:32N 53°44' E 000°46'1818.5
2014-Dec-12 09:33N 53°57' E 000°24'1918.6
2014-Dec-12 08:33N 54°10' E 000°03'1918.9
2014-Dec-12 07:33N 54°24' W 000°20'2518.3
2014-Dec-12 06:10N 54°38' W 000°56'8 0.4
2014-Dec-11 10:16N 54°36' W 001°09'0 0.0
2014-Dec-11 09:31N 54°36' W 001°09'2 2.0
2014-Dec-11 08:32N 54°38' W 001°09'5 4.5
2014-Dec-11 07:26N 54°40' W 001°02'0 0.0
2014-Dec-11 06:26N 54°40' W 001°02'0 0.0
2014-Dec-11 00:32N 54°40' W 001°02'0 0.0
2014-Dec-10 23:29N 54°40' W 001°02'5 5.1
2014-Dec-10 22:33N 54°39' W 000°54'1613.1
2014-Dec-10 21:21N 54°31' W 000°30'810.2
2014-Dec-10 20:33N 54°27' W 000°19'9 9.2
2014-Dec-10 19:33N 54°21' W 000°07'9 8.6
2014-Dec-10 18:33N 54°15' E 000°04'9 8.8
2014-Dec-10 17:33N 54°09' E 000°16'9 8.6
2014-Dec-10 16:33N 54°04' E 000°27'8 8.3
2014-Dec-10 15:34N 53°59' E 000°38'8 8.3
2014-Dec-10 14:33N 53°53' E 000°49'  

Dump ship's entire track history